Time;durP1;ratioP1;P1;durP2;ratioP2;P2;SDS_P1;SDS_P2;PMS_P1;PMS_P2;Temp;Humidity;BMP_temperature;BMP_pressure;BME280_temperature;BME280_humidity;BME280_pressure;Samples;Min_cycle;Max_cycle;Signal;HPM_P1;HPM_P2
2022/09/08 00:01:35;;;;;;;5.80;2.90;;;;;;;17.83;76.34;100819.06;5033396;28;20037;-75
2022/09/08 00:04:04;;;;;;;5.20;3.33;;;;;;;17.81;76.74;100821.78;5038279;28;20037;-75
2022/09/08 00:06:31;;;;;;;7.03;3.17;;;;;;;17.78;76.76;100832.47;5036041;28;20029;-75
2022/09/08 00:08:58;;;;;;;6.90;3.53;;;;;;;17.71;77.13;100821.44;5025580;28;20014;-75
2022/09/08 00:11:30;;;;;;;4.63;2.85;;;;;;;17.68;78.09;100811.09;5045642;28;20029;-75
2022/09/08 00:13:57;;;;;;;4.75;3.08;;;;;;;17.66;77.90;100806.88;5040212;28;20025;-76
2022/09/08 00:16:23;;;;;;;4.57;2.88;;;;;;;17.64;78.24;100814.81;5035662;28;20111;-75
2022/09/08 00:18:50;;;;;;;6.63;2.95;;;;;;;17.59;78.62;100819.53;5035165;28;20037;-75
2022/09/08 00:21:17;;;;;;;8.07;3.25;;;;;;;17.55;78.54;100823.25;5041738;28;20075;-75
2022/09/08 00:23:42;;;;;;;6.47;2.92;;;;;;;17.51;78.98;100821.72;5039092;28;20017;-76
2022/09/08 00:26:08;;;;;;;5.70;2.90;;;;;;;17.48;78.99;100809.59;5047324;28;20036;-75
2022/09/08 00:28:33;;;;;;;5.50;2.80;;;;;;;17.48;79.10;100803.47;5039036;28;20057;-75
2022/09/08 00:30:59;;;;;;;5.45;2.50;;;;;;;17.49;79.43;100807.78;5038457;28;20048;-75
2022/09/08 00:33:25;;;;;;;5.22;2.60;;;;;;;17.49;79.55;100805.16;5033742;28;20037;-75
2022/09/08 00:35:51;;;;;;;5.75;2.60;;;;;;;17.46;79.42;100811.44;5039345;28;20033;-75
2022/09/08 00:38:17;;;;;;;5.00;2.63;;;;;;;17.40;79.33;100810.00;5045666;28;20029;-75
2022/09/08 00:40:46;;;;;;;7.50;2.45;;;;;;;17.33;79.13;100816.53;5044842;28;20032;-75
2022/09/08 00:43:32;;;;;;;8.18;2.35;;;;;;;17.29;78.72;100820.25;5031619;28;20036;-75
2022/09/08 00:46:04;;;;;;;4.28;2.58;;;;;;;17.25;79.76;100813.50;5032305;28;20440;-75
2022/09/08 00:48:31;;;;;;;5.57;2.45;;;;;;;17.20;79.69;100816.34;5038045;28;20091;-75
2022/09/08 00:50:58;;;;;;;6.30;2.65;;;;;;;17.16;79.96;100798.19;5047201;28;20490;-75
2022/09/08 00:53:24;;;;;;;6.93;2.03;;;;;;;17.15;79.85;100786.84;5051684;28;20029;-75
2022/09/08 00:55:50;;;;;;;5.18;2.15;;;;;;;17.14;80.16;100785.97;5031837;28;20515;-75
2022/09/08 00:58:15;;;;;;;5.40;2.13;;;;;;;17.12;80.49;100779.94;5034643;28;20026;-75
2022/09/08 01:00:43;;;;;;;5.30;2.20;;;;;;;17.11;80.67;100775.63;5038606;28;20029;-75
2022/09/08 01:03:09;;;;;;;5.55;2.08;;;;;;;17.11;81.25;100774.78;5046320;28;20075;-75
2022/09/08 01:06:07;;;;;;;5.50;2.05;;;;;;;17.13;80.08;100778.19;5041228;28;20025;-74
2022/09/08 01:14:51;;;;;;;5.32;1.80;;;;;;;17.11;80.04;100748.50;5042037;28;20330;-74
2022/09/08 01:17:23;;;;;;;4.38;1.50;;;;;;;17.07;79.89;100746.97;5049447;28;20025;-74
2022/09/08 01:19:49;;;;;;;5.68;1.80;;;;;;;17.01;79.72;100740.28;5044778;28;20028;-74
2022/09/08 01:22:26;;;;;;;3.65;1.52;;;;;;;16.96;79.46;100734.41;5052534;28;20480;-75
2022/09/08 01:25:18;;;;;;;3.42;1.50;;;;;;;16.90;79.73;100729.47;5040658;28;20498;-75
2022/09/08 01:27:48;;;;;;;4.95;1.50;;;;;;;16.80;79.79;100724.72;5039912;28;20037;-76
2022/09/08 01:30:13;;;;;;;4.40;1.65;;;;;;;16.72;79.51;100716.41;5043948;28;20090;-75
2022/09/08 01:32:42;;;;;;;3.55;1.58;;;;;;;16.67;79.28;100728.94;5046580;28;20057;-75
2022/09/08 01:35:08;;;;;;;3.72;1.40;;;;;;;16.64;79.70;100723.84;5036018;28;20052;-75
2022/09/08 01:37:34;;;;;;;7.57;1.80;;;;;;;16.63;80.41;100724.75;5035953;28;20079;-75
2022/09/08 01:39:59;;;;;;;3.85;1.40;;;;;;;16.61;79.91;100716.97;5039509;28;20112;-75
2022/09/08 01:42:24;;;;;;;4.00;1.40;;;;;;;16.61;79.93;100714.34;5048981;28;20029;-75
2022/09/08 01:44:50;;;;;;;3.33;1.25;;;;;;;16.59;79.64;100710.09;5051863;28;20033;-74
2022/09/08 01:47:15;;;;;;;4.32;1.30;;;;;;;16.58;79.36;100713.63;5049824;28;20033;-75
2022/09/08 01:49:41;;;;;;;2.67;1.15;;;;;;;16.56;79.05;100718.16;5050353;28;20025;-75
2022/09/08 01:52:06;;;;;;;3.10;1.20;;;;;;;16.54;77.97;100719.09;5050823;28;20663;-75
2022/09/08 01:54:31;;;;;;;3.33;1.10;;;;;;;16.56;78.99;100715.53;5041712;28;20022;-75
2022/09/08 01:56:57;;;;;;;2.75;1.05;;;;;;;16.56;79.40;100710.28;5035109;28;20049;-75
2022/09/08 01:59:23;;;;;;;2.50;1.00;;;;;;;16.55;77.89;100709.41;5038725;28;20036;-75
2022/09/08 02:01:49;;;;;;;2.92;0.95;;;;;;;16.57;78.08;100714.59;5034935;28;20037;-75
2022/09/08 02:04:14;;;;;;;2.75;1.00;;;;;;;16.59;78.71;100715.34;5047818;28;20412;-75
2022/09/08 02:06:40;;;;;;;2.50;1.10;;;;;;;16.63;79.38;100704.63;5048212;28;20088;-75
2022/09/08 02:09:05;;;;;;;2.70;1.10;;;;;;;16.66;79.54;100682.56;5040062;28;20021;-75
2022/09/08 02:11:31;;;;;;;2.33;1.30;;;;;;;16.66;80.28;100685.19;5051194;28;20031;-75
2022/09/08 02:13:56;;;;;;;2.72;1.30;;;;;;;16.64;80.46;100684.44;5054431;28;20032;-75
2022/09/08 02:16:21;;;;;;;4.03;1.05;;;;;;;16.62;80.92;100678.41;5036918;28;20424;-75
2022/09/08 02:18:47;;;;;;;2.95;1.23;;;;;;;16.59;81.14;100674.19;5044193;28;20026;-75
2022/09/08 02:21:18;;;;;;;1.95;1.02;;;;;;;16.57;81.63;100669.94;5040204;28;20043;-75
2022/09/08 02:23:44;;;;;;;;;;;;;;;16.59;77.70;100668.06;5047288;28;20058;-75
2022/09/08 02:26:22;;;;;;;2.22;1.08;;;;;;;16.51;81.14;100677.22;5042688;28;19963;-75
2022/09/08 02:28:48;;;;;;;3.97;1.15;;;;;;;16.49;81.77;100668.56;5034600;28;20057;-75
2022/09/08 02:31:14;;;;;;;2.63;1.10;;;;;;;16.48;81.83;100668.66;5052455;28;20064;-75
2022/09/08 02:33:42;;;;;;;2.13;1.27;;;;;;;16.46;82.01;100668.72;5051852;28;20468;-75
2022/09/08 02:36:08;;;;;;;3.00;1.35;;;;;;;16.45;81.62;100667.03;5038483;28;20507;-75
2022/09/08 02:38:33;;;;;;;3.13;1.25;;;;;;;16.46;81.91;100660.84;5052684;28;20053;-75
2022/09/08 02:41:00;;;;;;;3.10;1.30;;;;;;;16.45;81.75;100653.91;5045380;28;20025;-75
2022/09/08 02:43:27;;;;;;;2.47;1.23;;;;;;;16.42;81.91;100661.09;5039239;28;20029;-75
2022/09/08 02:45:53;;;;;;;2.30;1.17;;;;;;;16.40;82.22;100655.91;5053081;28;20108;-75
2022/09/08 02:48:18;;;;;;;3.25;1.33;;;;;;;16.42;82.80;100653.22;5041261;28;20116;-75
2022/09/08 02:50:44;;;;;;;2.85;1.35;;;;;;;16.41;82.46;100654.16;5051897;28;20056;-75
2022/09/08 02:53:09;;;;;;;3.85;1.58;;;;;;;16.41;82.82;100654.16;5047280;28;20095;-75
2022/09/08 02:55:39;;;;;;;2.97;1.30;;;;;;;16.42;82.72;100655.84;5050119;28;20028;-75
2022/09/08 02:58:06;;;;;;;2.90;1.33;;;;;;;16.40;83.13;100655.91;5035784;28;20435;-75
2022/09/08 03:00:32;;;;;;;2.70;1.50;;;;;;;16.39;83.51;100660.34;5048322;28;20462;-75
2022/09/08 03:02:58;;;;;;;2.40;1.15;;;;;;;16.38;83.61;100661.25;5038009;28;20032;-75
2022/09/08 03:05:24;;;;;;;2.30;1.17;;;;;;;16.38;84.21;100669.13;5052374;28;20039;-75
2022/09/08 03:07:49;;;;;;;3.78;1.92;;;;;;;16.38;83.98;100660.44;5044886;28;20112;-75
2022/09/08 03:10:15;;;;;;;5.40;1.90;;;;;;;16.38;83.90;100655.19;5050646;28;20078;-75
2022/09/08 03:12:40;;;;;;;5.50;1.90;;;;;;;16.40;84.09;100658.53;5049993;28;20047;-75
2022/09/08 03:15:07;;;;;;;4.35;1.73;;;;;;;16.43;84.22;100668.06;5034352;28;20485;-74
2022/09/08 03:17:32;;;;;;;4.28;2.25;;;;;;;16.43;84.24;100674.13;5042911;28;20037;-75
2022/09/08 03:19:58;;;;;;;4.07;2.10;;;;;;;16.41;84.02;100665.50;5048158;28;20396;-74
2022/09/08 03:22:23;;;;;;;4.38;2.22;;;;;;;16.38;83.34;100678.81;5050326;28;20033;-75
2022/09/08 03:24:48;;;;;;;4.75;2.00;;;;;;;16.35;83.54;100671.91;5040818;28;20487;-75
2022/09/08 03:27:13;;;;;;;5.72;2.15;;;;;;;16.33;83.50;100658.03;5050748;28;20510;-75
2022/09/08 03:29:39;;;;;;;5.47;2.08;;;;;;;16.34;83.22;100664.13;5039102;28;20064;-75
2022/09/08 03:32:04;;;;;;;3.42;2.20;;;;;;;16.33;83.64;100668.53;5049167;28;20399;-74
2022/09/08 03:34:29;;;;;;;3.95;1.90;;;;;;;16.33;83.63;100663.28;5044666;28;20037;-74
2022/09/08 03:36:54;;;;;;;4.35;2.05;;;;;;;16.32;83.81;100651.06;5040208;28;20025;-74
2022/09/08 03:39:21;;;;;;;3.95;2.13;;;;;;;16.34;83.86;100653.63;5051476;28;20397;-74
2022/09/08 03:41:46;;;;;;;6.32;2.30;;;;;;;16.34;83.91;100658.88;5051128;28;20361;-74
2022/09/08 03:44:12;;;;;;;5.72;2.30;;;;;;;16.33;83.82;100662.44;5048156;28;20522;-74
2022/09/08 03:46:37;;;;;;;5.35;2.13;;;;;;;16.32;84.15;100671.25;5040631;28;20481;-74
2022/09/08 03:49:03;;;;;;;5.50;2.40;;;;;;;16.27;84.48;100663.63;5046970;28;20025;-74
2022/09/08 03:51:28;;;;;;;3.97;2.05;;;;;;;16.26;84.16;100671.56;5042559;28;20936;-75
2022/09/08 03:54:46;;;;;;;5.07;2.08;;;;;;;16.27;84.60;100681.13;5040471;28;20444;-74
2022/09/08 03:56:42;;;;;;;5.50;2.15;;;;;;;16.23;84.65;100689.16;5041085;28;20037;-75
2022/09/08 03:59:09;;;;;;;5.38;2.10;;;;;;;16.22;84.34;100691.88;5039603;28;20065;-75
2022/09/08 04:01:34;;;;;;;3.63;2.10;;;;;;;16.19;84.43;100679.78;5043855;28;20087;-75
2022/09/08 04:03:59;;;;;;;7.03;2.30;;;;;;;16.18;84.70;100664.94;5042481;28;20083;-74
2022/09/08 04:06:25;;;;;;;5.07;1.98;;;;;;;16.19;84.86;100650.91;5038713;28;20017;-75
2022/09/08 04:08:50;;;;;;;4.03;1.85;;;;;;;16.19;84.31;100655.28;5041515;28;20087;-75
2022/09/08 04:11:16;;;;;;;4.47;1.90;;;;;;;16.21;84.44;100661.31;5039929;28;20143;-74
2022/09/08 04:13:41;;;;;;;4.28;1.80;;;;;;;16.23;84.75;100665.53;5050890;28;20041;-74
2022/09/08 04:16:07;;;;;;;6.65;1.75;;;;;;;16.24;84.75;100664.59;5046179;28;20581;-74
2022/09/08 04:18:33;;;;;;;6.65;1.83;;;;;;;16.25;84.41;100660.22;5041544;28;20035;-74
2022/09/08 04:21:00;;;;;;;4.78;1.88;;;;;;;16.27;84.77;100657.50;5044021;28;20116;-74
2022/09/08 04:23:26;;;;;;;3.42;1.80;;;;;;;16.27;84.24;100662.75;5035974;28;20031;-74
2022/09/08 04:29:15;;;;;;;5.78;1.85;;;;;;;16.26;83.99;100669.78;5034074;28;20040;-75
2022/09/08 04:31:41;;;;;;;4.38;2.00;;;;;;;16.25;84.73;100673.34;5041465;28;20368;-74
2022/09/08 04:34:06;;;;;;;5.85;1.80;;;;;;;16.22;84.54;100677.00;5036574;28;20025;-74
2022/09/08 04:36:37;;;;;;;4.97;1.85;;;;;;;16.21;84.53;100677.91;5039066;28;21752;-74
2022/09/08 04:39:03;;;;;;;4.68;2.00;;;;;;;16.19;84.76;100687.66;5035713;28;20036;-74
2022/09/08 04:41:43;;;;;;;3.22;1.63;;;;;;;16.18;84.35;100685.06;5046825;28;20025;-74
2022/09/08 06:03:37;;;;;;;4.28;1.80;;;;;;;15.91;87.11;100691.66;5045482;28;19935;-74
2022/09/08 06:06:05;;;;;;;4.03;1.70;;;;;;;15.87;87.25;100687.53;5055310;28;20041;-75
2022/09/08 06:08:31;;;;;;;3.38;2.13;;;;;;;15.88;87.57;100689.22;5048909;28;20163;-75
2022/09/08 06:10:56;;;;;;;3.63;2.00;;;;;;;15.89;87.72;100690.88;5055432;28;20452;-74
2022/09/08 06:13:22;;;;;;;5.60;2.30;;;;;;;15.90;87.69;100704.88;5040160;28;20021;-74
2022/09/08 06:15:48;;;;;;;4.10;2.10;;;;;;;15.92;87.91;100703.03;5035683;28;20358;-74
2022/09/08 06:18:14;;;;;;;3.85;2.25;;;;;;;15.92;87.94;100703.84;5035380;28;20056;-74
2022/09/08 06:20:40;;;;;;;4.40;2.05;;;;;;;15.93;87.80;100697.69;5051441;28;20025;-74
2022/09/08 06:23:05;;;;;;;4.93;2.55;;;;;;;15.93;87.85;100700.31;5034514;28;20028;-74
2022/09/08 06:25:30;;;;;;;5.25;2.40;;;;;;;15.95;87.83;100716.00;5048677;28;20037;-74
2022/09/08 06:28:07;;;;;;;4.50;2.30;;;;;;;15.96;88.03;100717.69;5043245;28;20052;-74
2022/09/08 06:30:33;;;;;;;7.75;2.40;;;;;;;15.96;88.13;100715.06;5050699;28;20114;-74
2022/09/08 06:33:08;;;;;;;4.88;2.50;;;;;;;15.96;88.37;100703.72;5052043;28;20484;-74
2022/09/08 06:35:33;;;;;;;5.15;2.40;;;;;;;15.97;88.23;100702.78;5035769;28;20110;-74
2022/09/08 06:38:04;;;;;;;5.88;2.40;;;;;;;15.97;88.30;100702.78;5046478;28;20416;-74
2022/09/08 06:40:36;;;;;;;6.25;2.60;;;;;;;15.98;88.27;100704.47;5052550;28;20473;-74
2022/09/08 06:43:12;;;;;;;5.40;2.40;;;;;;;15.97;88.59;100694.91;5034361;28;20404;-74
2022/09/08 06:45:50;;;;;;;6.00;2.72;;;;;;;15.96;88.31;100716.81;5042977;28;20029;-74
2022/09/08 06:48:20;;;;;;;5.50;2.50;;;;;;;15.96;88.52;100711.56;5043280;28;20442;-74
2022/09/08 06:51:24;;;;;;;8.57;2.70;;;;;;;15.95;88.53;100716.00;5047487;28;20395;-74
2022/09/08 06:54:09;;;;;;;6.43;2.60;;;;;;;15.98;89.13;100722.84;5045576;28;20079;-74
2022/09/08 06:56:51;;;;;;;3.88;2.40;;;;;;;15.99;88.89;100717.50;5042287;28;20484;-74
2022/09/08 06:59:38;;;;;;;7.07;3.05;;;;;;;16.02;88.75;100713.91;5039024;28;20029;-73
2022/09/08 07:02:06;;;;;;;7.43;2.85;;;;;;;16.03;89.11;100716.44;5039287;28;20476;-74
2022/09/08 07:04:34;;;;;;;6.22;2.83;;;;;;;16.07;88.85;100711.88;5038838;28;20060;-74
2022/09/08 07:07:17;;;;;;;4.22;2.40;;;;;;;16.11;89.21;100710.78;5041797;28;20480;-74
2022/09/08 07:10:07;;;;;;;3.88;2.38;;;;;;;16.15;88.93;100717.59;5037893;28;20056;-74
2022/09/08 07:12:45;;;;;;;3.40;2.40;;;;;;;16.19;89.31;100719.13;5034036;28;20017;-74
2022/09/08 07:15:17;;;;;;;4.70;2.47;;;;;;;16.22;88.94;100712.88;5034945;28;20566;-74
2022/09/08 07:18:07;;;;;;;6.35;2.40;;;;;;;16.26;88.76;100716.19;5039357;28;20466;-74
2022/09/08 07:20:33;;;;;;;5.05;2.38;;;;;;;16.29;88.73;100718.66;5041057;28;20057;-74
2022/09/08 07:23:04;;;;;;;6.43;2.53;;;;;;;16.31;89.03;100714.19;5037869;28;20060;-74
2022/09/08 07:25:32;;;;;;;6.07;2.80;;;;;;;16.34;89.02;100722.72;5034758;28;20080;-74
2022/09/08 07:28:13;;;;;;;9.75;3.10;;;;;;;16.36;88.48;100722.66;5037049;28;20024;-74
2022/09/08 07:30:39;;;;;;;5.72;3.00;;;;;;;16.37;88.39;100724.38;5037205;28;20031;-74
2022/09/08 07:33:17;;;;;;;8.30;3.03;;;;;;;16.41;88.37;100727.66;5037735;28;20033;-74
2022/09/08 07:35:58;;;;;;;6.70;2.90;;;;;;;16.45;88.55;100724.78;5037970;28;20052;-74
2022/09/08 07:38:36;;;;;;;5.30;2.63;;;;;;;16.52;88.84;100720.94;5034345;28;20025;-74
2022/09/08 07:41:05;;;;;;;5.57;2.92;;;;;;;16.58;88.96;100718.88;5033284;28;20096;-74
2022/09/08 07:43:31;;;;;;;5.32;3.10;;;;;;;16.61;88.53;100724.00;5017464;28;20028;-74
2022/09/08 07:46:21;;;;;;;7.05;3.38;;;;;;;16.66;88.55;100721.97;5043081;28;20032;-75
2022/09/08 07:49:29;;;;;;;6.50;3.40;;;;;;;16.68;86.90;100717.50;5041010;28;20034;-75
2022/09/08 07:52:00;;;;;;;6.63;3.47;;;;;;;16.71;87.66;100717.34;5035573;28;20037;-74
2022/09/08 07:54:51;;;;;;;8.20;3.85;;;;;;;16.74;87.58;100719.75;5039311;28;20511;-75
2022/09/08 07:57:31;;;;;;;6.65;3.70;;;;;;;16.75;87.52;100726.72;5043280;28;20025;-75
2022/09/08 08:00:14;;;;;;;6.00;4.13;;;;;;;16.75;87.67;100724.09;5037452;28;20503;-75
2022/09/08 08:03:09;;;;;;;7.45;4.10;;;;;;;16.76;87.31;100722.34;5043198;28;20468;-75
2022/09/08 08:05:47;;;;;;;7.28;4.50;;;;;;;16.80;87.68;100719.44;5034653;28;20544;-75
2022/09/08 08:08:30;;;;;;;5.38;4.57;;;;;;;16.87;87.26;100717.34;5035720;28;20025;-75
2022/09/08 08:11:15;;;;;;;7.22;4.65;;;;;;;16.92;86.98;100722.34;5033999;28;20025;-75
2022/09/08 08:13:55;;;;;;;7.60;4.75;;;;;;;16.97;86.91;100730.84;5038741;28;20036;-75
2022/09/08 08:17:02;;;;;;;5.33;4.33;;;;;;;17.00;86.57;100725.44;5043147;28;20024;-74
2022/09/08 08:19:54;;;;;;;6.22;4.05;;;;;;;16.98;85.65;100727.28;5042697;28;20040;-74
2022/09/08 08:23:12;;;;;;;7.00;4.07;;;;;;;17.01;85.59;100724.50;5039177;28;20037;-75
2022/09/08 08:25:59;;;;;;;5.80;4.60;;;;;;;17.12;85.52;100719.50;5024231;28;20132;-75
2022/09/08 08:28:24;;;;;;;8.07;4.43;;;;;;;17.23;84.38;100724.16;5022507;28;20431;-75
2022/09/08 08:31:10;;;;;;;8.25;4.60;;;;;;;17.31;85.10;100734.25;5039774;28;20044;-75
2022/09/08 08:33:43;;;;;;;7.70;4.10;;;;;;;17.37;82.82;100723.41;5039040;28;20029;-75
2022/09/08 08:36:12;;;;;;;6.82;4.30;;;;;;;17.38;81.58;100730.34;5041575;28;20082;-75
2022/09/08 08:38:43;;;;;;;7.10;4.55;;;;;;;17.34;81.37;100726.19;5036814;28;20030;-75
2022/09/08 08:41:23;;;;;;;6.47;4.32;;;;;;;17.33;81.64;100734.19;5040909;28;20033;-75
2022/09/08 08:44:04;;;;;;;4.50;3.00;;;;;;;17.29;79.00;100733.47;5036631;28;20060;-75
2022/09/08 08:46:35;;;;;;;4.57;2.90;;;;;;;17.27;78.58;100732.72;5042391;28;20254;-75
2022/09/08 08:49:09;;;;;;;4.30;3.10;;;;;;;17.33;79.43;100736.81;5041192;28;20287;-75
2022/09/08 08:52:02;;;;;;;4.10;2.97;;;;;;;17.40;80.51;100739.00;5036534;28;20029;-75
2022/09/08 08:54:56;;;;;;;4.75;3.05;;;;;;;17.53;79.95;100740.94;5046664;28;20508;-75
2022/09/08 08:57:47;;;;;;;3.83;2.53;;;;;;;17.65;80.09;100737.59;5032132;28;20044;-75
2022/09/08 09:00:15;;;;;;;3.97;2.55;;;;;;;17.69;77.74;100736.50;5036099;28;20033;-75
2022/09/08 09:03:01;;;;;;;5.03;2.10;;;;;;;17.73;77.18;100738.03;5037731;28;20040;-75
2022/09/08 09:05:48;;;;;;;3.60;2.00;;;;;;;17.84;77.47;100736.53;5039866;28;20050;-75
2022/09/08 09:08:39;;;;;;;4.07;1.90;;;;;;;17.94;78.55;100737.69;5015920;28;20473;-75
2022/09/08 09:11:18;;;;;;;4.97;1.95;;;;;;;17.98;76.79;100723.44;5037381;28;20080;-75
2022/09/08 09:14:12;;;;;;;3.38;1.83;;;;;;;18.01;77.56;100728.53;5035035;28;20087;-75
2022/09/08 09:16:43;;;;;;;2.75;1.90;;;;;;;17.94;74.76;100732.41;5041869;28;20025;-75
2022/09/08 09:19:47;;;;;;;2.55;1.65;;;;;;;17.83;75.55;100735.72;5045056;28;20025;-75
2022/09/08 09:22:28;;;;;;;2.97;2.05;;;;;;;17.72;75.88;100738.97;5013681;28;20060;-75
2022/09/08 09:25:03;;;;;;;2.70;1.45;;;;;;;17.71;76.18;100741.66;5034958;28;20032;-75
2022/09/08 09:27:42;;;;;;;3.80;1.70;;;;;;;17.69;75.87;100739.13;5035212;28;20511;-75
2022/09/08 09:30:54;;;;;;;3.03;1.75;;;;;;;17.73;76.51;100739.78;5037136;28;20017;-75
2022/09/08 09:33:43;;;;;;;2.30;1.60;;;;;;;17.72;75.46;100738.09;4998491;28;20045;-75
2022/09/08 09:36:27;;;;;;;3.17;1.80;;;;;;;17.77;75.93;100740.44;5037347;28;20029;-75
2022/09/08 09:39:14;;;;;;;2.95;1.58;;;;;;;17.83;75.57;100733.06;5039345;28;20041;-75
2022/09/08 09:42:17;;;;;;;3.85;1.67;;;;;;;17.94;75.88;100736.84;5037034;28;20028;-75
2022/09/08 09:45:03;;;;;;;2.25;1.30;;;;;;;18.04;75.38;100738.03;5047028;28;20060;-75
2022/09/08 09:47:47;;;;;;;3.25;1.58;;;;;;;18.07;74.42;100732.59;5046059;28;20606;-75
2022/09/08 09:50:27;;;;;;;5.78;1.23;;;;;;;18.07;74.13;100731.75;5041764;28;20025;-77
2022/09/08 09:53:02;;;;;;;2.05;1.10;;;;;;;18.12;74.79;100729.69;5040431;28;20506;-75
2022/09/08 09:55:46;;;;;;;2.78;1.23;;;;;;;18.28;74.93;100733.09;5043518;28;20024;-75
2022/09/08 09:58:29;;;;;;;5.57;1.40;;;;;;;18.39;73.19;100731.59;5046457;28;20035;-75
2022/09/08 10:01:07;;;;;;;5.18;1.30;;;;;;;18.47;71.83;100737.25;5049434;28;20043;-75
2022/09/08 10:04:02;;;;;;;2.10;1.02;;;;;;;18.61;72.45;100731.13;5042530;28;20025;-75
2022/09/08 10:06:52;;;;;;;6.65;1.45;;;;;;;18.64;71.25;100726.53;5048100;28;20396;-75
2022/09/08 10:09:30;;;;;;;4.40;1.15;;;;;;;18.71;71.93;100726.97;5044404;28;20468;-75
2022/09/08 10:12:11;;;;;;;2.95;1.25;;;;;;;18.75;70.38;100738.19;5036109;28;20028;-75
2022/09/08 10:15:12;;;;;;;4.25;1.20;;;;;;;18.84;71.15;100742.88;5018011;28;20040;-75
2022/09/08 10:17:57;;;;;;;2.85;1.00;;;;;;;18.93;71.27;100731.78;5033764;28;20030;-75
2022/09/08 10:20:50;;;;;;;3.17;1.00;;;;;;;19.03;69.79;100728.59;5037529;28;20202;-75
2022/09/08 10:23:48;;;;;;;3.08;0.90;;;;;;;19.04;68.28;100730.28;5032786;28;20076;-75
2022/09/08 10:26:36;;;;;;;3.75;0.93;;;;;;;19.00;67.31;100726.13;5035948;28;20181;-75
2022/09/08 10:29:47;;;;;;;4.60;1.10;;;;;;;18.99;67.68;100725.31;5035624;28;20053;-75
2022/09/08 10:32:47;;;;;;;5.22;1.05;;;;;;;19.01;67.65;100733.97;5006298;28;20457;-75
2022/09/08 10:35:23;;;;;;;4.63;1.10;;;;;;;19.04;65.31;100739.06;5041249;28;20041;-75
2022/09/08 10:37:51;;;;;;;3.42;0.82;;;;;;;19.04;65.68;100725.00;5043948;28;20396;-75
2022/09/08 10:40:19;;;;;;;3.80;0.90;;;;;;;19.02;66.40;100729.53;5033363;28;20021;-75
2022/09/08 10:43:03;;;;;;;1.95;0.90;;;;;;;19.00;67.03;100728.78;5039948;28;20050;-75
2022/09/08 10:45:53;;;;;;;2.53;1.00;;;;;;;18.97;67.32;100732.47;5034555;28;20029;-75
2022/09/08 10:49:00;;;;;;;5.07;1.08;;;;;;;19.05;66.33;100726.69;5040221;28;20095;-75
2022/09/08 10:51:36;;;;;;;4.78;1.17;;;;;;;19.21;66.32;100724.78;5040310;28;20025;-76
2022/09/08 10:54:34;;;;;;;4.68;1.10;;;;;;;19.30;64.99;100717.22;5037132;28;20197;-75
2022/09/08 10:57:08;;;;;;;3.75;0.93;;;;;;;19.39;65.35;100711.34;5040057;28;20075;-76
2022/09/08 10:59:46;;;;;;;4.88;1.33;;;;;;;19.48;64.29;100715.19;5039300;28;20064;-75
2022/09/08 11:02:47;;;;;;;5.18;1.10;;;;;;;19.57;64.91;100722.47;5041986;28;20587;-76
2022/09/08 11:05:41;;;;;;;3.45;1.00;;;;;;;19.55;63.77;100722.59;5044585;28;20473;-75
2022/09/08 11:08:44;;;;;;;3.53;1.05;;;;;;;19.55;64.72;100714.66;5041186;28;20181;-75
2022/09/08 11:11:36;;;;;;;3.40;0.90;;;;;;;19.53;63.13;100708.66;5036557;28;20090;-75
2022/09/08 11:14:31;;;;;;;3.05;1.30;;;;;;;19.44;62.91;100714.53;5013425;28;20041;-75
2022/09/08 11:17:21;;;;;;;2.67;1.15;;;;;;;19.39;63.34;100716.63;5034414;28;20477;-75
2022/09/08 11:20:07;;;;;;;7.28;1.10;;;;;;;19.44;63.42;100714.53;5037878;28;20042;-75
2022/09/08 11:22:51;;;;;;;5.72;1.25;;;;;;;19.52;62.78;100706.94;5040015;28;20047;-75
2022/09/08 11:26:04;;;;;;;3.80;1.00;;;;;;;19.63;64.17;100706.25;5019235;28;20025;-75
2022/09/08 11:28:38;;;;;;;5.32;0.95;;;;;;;19.70;62.19;100707.53;4999189;28;20043;-76
2022/09/08 11:31:13;;;;;;;3.03;1.00;;;;;;;19.80;62.14;100707.78;5037157;28;20033;-76
2022/09/08 11:34:12;;;;;;;2.90;0.95;;;;;;;19.91;62.29;100704.41;5034689;28;20380;-76
2022/09/08 11:36:58;;;;;;;3.35;0.93;;;;;;;19.94;61.03;100706.03;5040525;28;20090;-75
2022/09/08 11:39:49;;;;;;;2.88;0.95;;;;;;;19.91;62.54;100703.59;5033150;28;20026;-76
2022/09/08 11:42:33;;;;;;;4.45;1.15;;;;;;;19.93;60.65;100709.63;5033662;28;20038;-75
2022/09/08 11:45:22;;;;;;;7.35;1.13;;;;;;;19.98;62.41;100699.59;5038078;28;20059;-76
2022/09/08 11:48:09;;;;;;;4.35;1.05;;;;;;;19.95;62.58;100694.53;5038356;28;20029;-75
2022/09/08 11:50:55;;;;;;;4.90;1.00;;;;;;;19.98;61.22;100694.31;5044702;28;20042;-75
2022/09/08 11:53:26;;;;;;;4.55;1.00;;;;;;;20.02;60.89;100698.41;5039736;28;20063;-75
2022/09/08 11:56:00;;;;;;;;;;;;;;;20.02;61.38;100693.13;5042538;28;20507;-75
2022/09/08 11:59:03;;;;;;;4.15;1.20;;;;;;;19.85;61.46;100703.00;5045127;28;19948;-75
2022/09/08 12:02:06;;;;;;;2.90;0.90;;;;;;;19.75;61.30;100701.09;5003603;28;20071;-75
2022/09/08 12:04:52;;;;;;;4.68;1.10;;;;;;;19.65;61.20;100692.94;5034415;28;20493;-75
2022/09/08 12:07:29;;;;;;;4.60;1.15;;;;;;;19.56;60.97;100700.53;5035183;28;20021;-76
2022/09/08 12:10:03;;;;;;;4.07;1.10;;;;;;;19.50;60.11;100693.00;5033283;28;20167;-75
2022/09/08 12:12:43;;;;;;;5.25;1.10;;;;;;;19.48;61.41;100684.34;5039703;28;20028;-76
2022/09/08 12:15:46;;;;;;;3.10;1.10;;;;;;;19.56;61.98;100682.06;5034954;28;20079;-75
2022/09/08 12:18:27;;;;;;;3.33;1.02;;;;;;;19.69;61.03;100670.69;5037979;28;20040;-75
2022/09/08 12:21:12;;;;;;;6.07;1.10;;;;;;;19.79;59.89;100669.13;5036281;28;20021;-75
2022/09/08 12:24:00;;;;;;;3.22;0.93;;;;;;;19.91;59.44;100679.84;5037015;28;20045;-75
2022/09/08 12:26:54;;;;;;;3.85;1.13;;;;;;;19.98;60.25;100666.09;5039977;28;20171;-76
2022/09/08 12:29:51;;;;;;;2.90;1.20;;;;;;;20.05;59.57;100671.81;5043970;28;20384;-76
2022/09/08 12:32:35;;;;;;;1.92;0.95;;;;;;;20.06;60.13;100672.66;5050258;28;20025;-76
2022/09/08 12:35:25;;;;;;;4.13;1.13;;;;;;;20.02;58.90;100664.09;5040831;28;20036;-75
2022/09/08 12:37:53;;;;;;;3.72;1.20;;;;;;;20.04;59.64;100658.72;5038021;28;20725;-75
2022/09/08 12:40:25;;;;;;;5.05;1.10;;;;;;;20.11;59.72;100655.53;5035236;28;20033;-75
2022/09/08 12:43:13;;;;;;;3.13;1.08;;;;;;;20.25;59.38;100656.38;5038876;28;20029;-76
2022/09/08 12:46:01;;;;;;;3.17;1.10;;;;;;;20.30;58.12;100649.00;5032849;28;20477;-75
2022/09/08 12:48:51;;;;;;;4.35;1.25;;;;;;;20.38;57.56;100657.22;5033739;28;20025;-76
2022/09/08 12:51:34;;;;;;;3.42;1.15;;;;;;;20.43;57.48;100655.09;5041422;28;20059;-76
2022/09/08 12:54:37;;;;;;;4.55;1.25;;;;;;;20.40;57.69;100644.72;5043452;28;20057;-75
2022/09/08 12:57:38;;;;;;;3.13;1.02;;;;;;;20.40;58.11;100649.19;5036673;28;20025;-75
2022/09/08 13:00:11;;;;;;;4.57;1.17;;;;;;;20.33;56.99;100654.03;5037292;28;20029;-75
2022/09/08 13:03:13;;;;;;;3.13;0.90;;;;;;;20.28;57.96;100653.53;5046811;28;20315;-75
2022/09/08 13:06:10;;;;;;;4.45;0.80;;;;;;;20.20;57.77;100656.72;5037735;28;20046;-75
2022/09/08 13:08:44;;;;;;;3.92;0.80;;;;;;;20.23;57.58;100655.63;5045633;28;20013;-76
2022/09/08 13:11:19;;;;;;;2.92;0.70;;;;;;;20.29;56.42;100650.78;5035974;28;20445;-75
2022/09/08 13:13:46;;;;;;;3.30;0.82;;;;;;;20.35;56.51;100657.41;5037004;28;20029;-75
2022/09/08 13:16:27;;;;;;;5.93;0.80;;;;;;;20.38;57.00;100651.91;5069137;28;20021;-75
2022/09/08 13:19:24;;;;;;;2.35;0.75;;;;;;;20.37;57.39;100655.50;5053194;28;20039;-76
2022/09/08 13:22:11;;;;;;;2.25;0.63;;;;;;;20.30;54.93;100656.91;5011835;28;20447;-76
2022/09/08 13:24:58;;;;;;;2.13;0.75;;;;;;;20.26;56.66;100663.34;5042060;28;20431;-75
2022/09/08 13:27:37;;;;;;;2.17;0.70;;;;;;;20.20;55.97;100671.69;5048852;28;20025;-76
2022/09/08 13:30:27;;;;;;;2.28;0.80;;;;;;;20.16;56.70;100663.97;5041735;28;20032;-75
2022/09/08 13:33:00;;;;;;;2.08;0.70;;;;;;;;;;5048124;28;20025;-76
2022/09/08 13:35:50;;;;;;;3.67;0.63;;;;;;;20.15;56.86;100662.28;5041923;28;20028;-75
2022/09/08 13:38:40;;;;;;;5.50;0.70;;;;;;;20.16;55.75;100669.25;5045163;28;20048;-76
2022/09/08 13:41:24;;;;;;;3.33;1.02;;;;;;;20.17;55.42;100670.94;5038791;28;20025;-75